Time;durP1;ratioP1;P1;durP2;ratioP2;P2;SDS_P1;SDS_P2;PMS_P1;PMS_P2;Temp;Humidity;BMP_temperature;BMP_pressure;BME280_temperature;BME280_humidity;BME280_pressure;Samples;Min_cycle;Max_cycle;Signal;HPM_P1;HPM_P2
2021/08/04 00:01:27;;;;;;;2.13;1.45;;;;;;;;;;4989385;28;20078;-59
2021/08/04 00:03:55;;;;;;;2.83;1.60;;;;;;;;;;4967608;28;20096;-59
2021/08/04 00:06:35;;;;;;;2.15;1.30;;;;;;;;;;4984529;28;20470;-58
2021/08/04 00:09:03;;;;;;;2.38;1.30;;;;;;;;;;4990713;28;20129;-59
2021/08/04 00:11:33;;;;;;;3.78;1.70;;;;;;;;;;4994387;28;20133;-58
2021/08/04 00:14:01;;;;;;;2.70;1.58;;;;;;;;;;4994538;28;20050;-58
2021/08/04 00:16:30;;;;;;;2.90;1.60;;;;;;;;;;4994435;28;20084;-58
2021/08/04 00:18:58;;;;;;;1.77;1.38;;;;;;;;;;4994064;28;20612;-59
2021/08/04 00:21:26;;;;;;;3.17;1.60;;;;;;;;;;4994092;28;20394;-59
2021/08/04 00:23:55;;;;;;;3.15;1.65;;;;;;;;;;5001461;28;20136;-60
2021/08/04 00:26:23;;;;;;;3.05;1.63;;;;;;;;;;4994005;28;20129;-58
2021/08/04 00:28:53;;;;;;;2.47;1.48;;;;;;;;;;4993222;28;20585;-59
2021/08/04 00:31:21;;;;;;;2.55;1.10;;;;;;;;;;4993649;28;20146;-59
2021/08/04 00:33:50;;;;;;;3.08;1.63;;;;;;;;;;4981803;28;20054;-59
2021/08/04 00:36:18;;;;;;;2.28;1.30;;;;;;;;;;4993413;28;20042;-59
2021/08/04 00:38:46;;;;;;;2.28;1.50;;;;;;;;;;4993935;28;20050;-59
2021/08/04 00:41:14;;;;;;;2.75;1.65;;;;;;;;;;5010578;28;20173;-58
2021/08/04 00:43:43;;;;;;;2.85;1.65;;;;;;;;;;4993471;28;20093;-59
2021/08/04 00:46:14;;;;;;;2.55;1.50;;;;;;;;;;4987832;28;20116;-58
2021/08/04 00:48:44;;;;;;;1.85;1.30;;;;;;;;;;4993461;28;20046;-58
2021/08/04 00:51:12;;;;;;;2.97;1.45;;;;;;;;;;5001745;28;20132;-58
2021/08/04 00:53:40;;;;;;;2.28;1.45;;;;;;;;;;5000160;28;20137;-58
2021/08/04 00:56:10;;;;;;;4.72;1.50;;;;;;;;;;5032696;28;20137;-59
2021/08/04 00:58:40;;;;;;;4.22;1.70;;;;;;;;;;5043136;28;20489;-59
2021/08/04 01:01:10;;;;;;;2.22;1.40;;;;;;;;;;5046432;28;20135;-56
2021/08/04 01:03:43;;;;;;;4.75;1.60;;;;;;;;;;5036447;28;20765;-57
2021/08/04 01:06:14;;;;;;;2.70;1.60;;;;;;;;;;5024858;28;20057;-56
2021/08/04 01:08:44;;;;;;;2.33;1.52;;;;;;;;;;5033999;28;20072;-56
2021/08/04 01:11:16;;;;;;;1.88;1.20;;;;;;;;;;5030531;28;20048;-58
2021/08/04 01:13:47;;;;;;;2.05;1.52;;;;;;;;;;5032481;28;20132;-57
2021/08/04 01:16:16;;;;;;;4.43;1.60;;;;;;;;;;5013292;28;20131;-58
2021/08/04 01:18:48;;;;;;;3.55;1.55;;;;;;;;;;5024690;28;20123;-58
2021/08/04 01:21:20;;;;;;;2.38;1.60;;;;;;;;;;5032374;28;20104;-58
2021/08/04 01:23:52;;;;;;;3.90;1.50;;;;;;;;;;5034679;28;20257;-57
2021/08/04 01:26:28;;;;;;;1.65;1.25;;;;;;;;;;5031365;28;20144;-58
2021/08/04 01:28:58;;;;;;;5.13;1.58;;;;;;;;;;5032501;28;20128;-58
2021/08/04 01:31:27;;;;;;;2.40;1.63;;;;;;;;;;5032953;28;20076;-58
2021/08/04 01:33:57;;;;;;;3.38;1.90;;;;;;;;;;5034422;28;20052;-58
2021/08/04 01:36:25;;;;;;;2.28;1.40;;;;;;;;;;5033292;28;20464;-58
2021/08/04 01:38:54;;;;;;;5.00;1.80;;;;;;;;;;5032352;28;20141;-58
2021/08/04 01:41:22;;;;;;;4.10;1.27;;;;;;;;;;5036459;28;20128;-58
2021/08/04 01:43:52;;;;;;;2.53;1.33;;;;;;;;;;5032947;28;20050;-58
2021/08/04 01:46:21;;;;;;;3.05;1.88;;;;;;;;;;5033554;28;20050;-58
2021/08/04 01:48:49;;;;;;;4.00;1.83;;;;;;;;;;5036414;28;20053;-58
2021/08/04 01:51:18;;;;;;;4.03;1.88;;;;;;;;;;5038623;28;20057;-58
2021/08/04 01:53:47;;;;;;;3.97;1.73;;;;;;;;;;5032447;28;20076;-58
2021/08/04 01:56:16;;;;;;;3.60;1.55;;;;;;;;;;5034577;28;20156;-58
2021/08/04 01:58:45;;;;;;;1.90;1.52;;;;;;;;;;5034103;28;20124;-58
2021/08/04 02:01:14;;;;;;;4.00;1.60;;;;;;;;;;5035442;28;20041;-58
2021/08/04 02:03:43;;;;;;;5.53;1.85;;;;;;;;;;5035726;28;20176;-58
2021/08/04 02:06:15;;;;;;;2.20;1.40;;;;;;;;;;5028368;28;20049;-58
2021/08/04 02:08:47;;;;;;;2.15;1.48;;;;;;;;;;5030970;28;20211;-58
2021/08/04 02:11:17;;;;;;;2.22;1.60;;;;;;;;;;5034002;28;20045;-58
2021/08/04 02:13:49;;;;;;;2.72;1.75;;;;;;;;;;5027071;28;20465;-58
2021/08/04 02:16:24;;;;;;;5.68;1.55;;;;;;;;;;5033491;28;20180;-57
2021/08/04 02:18:57;;;;;;;5.03;1.92;;;;;;;;;;5032699;28;20053;-57
2021/08/04 02:25:05;;;;;;;4.18;1.50;;;;;;;;;;5030694;28;20076;-57
2021/08/04 02:27:34;;;;;;;2.95;1.60;;;;;;;;;;5034182;28;20162;-57
2021/08/04 02:30:02;;;;;;;3.70;1.73;;;;;;;;;;5034047;28;20049;-57
2021/08/04 02:32:32;;;;;;;2.03;1.52;;;;;;;;;;5031988;28;20128;-57
2021/08/04 02:35:01;;;;;;;2.95;1.55;;;;;;;;;;5033158;28;20103;-57
2021/08/04 02:37:29;;;;;;;4.22;1.42;;;;;;;;;;5034269;28;20089;-58
2021/08/04 02:39:58;;;;;;;2.30;1.75;;;;;;;;;;5044777;28;20101;-58
2021/08/04 02:42:26;;;;;;;4.60;1.70;;;;;;;;;;5040099;28;20565;-58
2021/08/04 02:44:54;;;;;;;2.40;1.45;;;;;;;;;;5043079;28;20056;-58
2021/08/04 02:47:23;;;;;;;2.30;1.48;;;;;;;;;;5033666;28;20144;-57
2021/08/04 02:49:53;;;;;;;3.13;2.03;;;;;;;;;;5032301;28;20049;-58
2021/08/04 02:52:26;;;;;;;2.83;1.50;;;;;;;;;;5030997;28;20049;-58
2021/08/04 02:54:54;;;;;;;2.65;1.90;;;;;;;;;;5032287;28;20049;-57
2021/08/04 02:57:22;;;;;;;2.92;1.75;;;;;;;;;;5031954;28;20050;-57
2021/08/04 02:59:50;;;;;;;2.63;1.73;;;;;;;;;;5032066;28;20052;-57
2021/08/04 03:02:19;;;;;;;4.68;1.60;;;;;;;;;;5032975;28;20056;-57
2021/08/04 03:04:47;;;;;;;3.90;1.92;;;;;;;;;;5032527;28;20485;-58
2021/08/04 03:07:17;;;;;;;2.83;1.60;;;;;;;;;;5028000;28;20145;-58
2021/08/04 03:09:45;;;;;;;3.60;1.67;;;;;;;;;;5032687;28;20120;-58
2021/08/04 03:12:14;;;;;;;2.03;1.45;;;;;;;;;;5039466;28;20109;-58
2021/08/04 03:14:42;;;;;;;3.63;1.85;;;;;;;;;;5031388;28;20531;-58
2021/08/04 03:17:10;;;;;;;5.00;1.63;;;;;;;;;;5033170;28;20064;-58
2021/08/04 03:19:38;;;;;;;4.32;1.80;;;;;;;;;;5029252;28;20070;-58
2021/08/04 03:22:07;;;;;;;5.10;1.67;;;;;;;;;;5034325;28;20104;-59
2021/08/04 03:24:36;;;;;;;3.35;1.73;;;;;;;;;;5036772;28;20140;-58
2021/08/04 03:27:05;;;;;;;2.78;1.60;;;;;;;;;;5032062;28;20139;-58
2021/08/04 03:29:33;;;;;;;4.32;1.60;;;;;;;;;;5028357;28;20128;-58
2021/08/04 03:32:02;;;;;;;5.20;1.83;;;;;;;;;;5030371;28;20049;-58
2021/08/04 03:34:30;;;;;;;4.15;1.65;;;;;;;;;;5027749;28;20381;-57
2021/08/04 03:36:58;;;;;;;2.58;1.27;;;;;;;;;;5029533;28;20122;-58
2021/08/04 03:39:27;;;;;;;3.53;1.85;;;;;;;;;;5027578;28;20041;-58
2021/08/04 03:41:57;;;;;;;3.72;1.60;;;;;;;;;;5028016;28;20047;-58
2021/08/04 03:44:25;;;;;;;3.03;1.67;;;;;;;;;;5034723;28;20558;-57
2021/08/04 03:46:53;;;;;;;2.40;1.70;;;;;;;;;;5032950;28;20081;-58
2021/08/04 03:49:22;;;;;;;3.28;1.73;;;;;;;;;;5030953;28;20430;-59
2021/08/04 03:51:50;;;;;;;3.38;1.85;;;;;;;;;;5025578;28;20529;-58
2021/08/04 03:54:18;;;;;;;6.53;1.92;;;;;;;;;;5032985;28;20053;-58
2021/08/04 03:56:46;;;;;;;2.60;1.50;;;;;;;;;;5034803;28;20060;-58
2021/08/04 03:59:16;;;;;;;2.22;1.50;;;;;;;;;;5030703;28;20615;-57
2021/08/04 04:01:44;;;;;;;3.53;1.77;;;;;;;;;;5032259;28;20045;-58
2021/08/04 04:04:12;;;;;;;4.57;1.90;;;;;;;;;;5028124;28;20460;-58
2021/08/04 04:06:41;;;;;;;7.00;1.75;;;;;;;;;;5027787;28;20042;-58
2021/08/04 04:09:09;;;;;;;2.60;1.60;;;;;;;;;;5026583;28;20157;-58
2021/08/04 04:11:37;;;;;;;3.17;1.63;;;;;;;;;;5026015;28;20708;-59
2021/08/04 04:14:06;;;;;;;5.07;1.65;;;;;;;;;;5021747;28;20057;-58
2021/08/04 04:16:35;;;;;;;3.13;1.75;;;;;;;;;;4982224;28;20103;-58
2021/08/04 04:19:04;;;;;;;1.92;1.46;;;;;;;;;;314053;28;10022811;-59
2021/08/04 04:21:33;;;;;;;2.70;1.42;;;;;;;;;;5018090;28;20136;-58
2021/08/04 04:24:01;;;;;;;6.45;1.92;;;;;;;;;;5025579;28;20056;-58
2021/08/04 04:26:30;;;;;;;3.30;1.52;;;;;;;;;;5021870;28;20084;-58
2021/08/04 04:28:59;;;;;;;3.47;1.75;;;;;;;;;;5028535;28;20041;-58
2021/08/04 04:31:27;;;;;;;3.28;1.83;;;;;;;;;;5024411;28;20053;-57
2021/08/04 04:33:57;;;;;;;4.38;1.70;;;;;;;;;;5031904;28;20049;-58
2021/08/04 04:36:25;;;;;;;2.85;1.63;;;;;;;;;;5031630;28;20059;-58
2021/08/04 04:38:54;;;;;;;4.28;2.05;;;;;;;;;;5033176;28;20121;-58
2021/08/04 04:41:22;;;;;;;2.92;1.95;;;;;;;;;;5024837;28;20413;-58
2021/08/04 04:43:50;;;;;;;3.80;2.10;;;;;;;;;;5025931;28;20059;-58
2021/08/04 04:46:18;;;;;;;3.20;1.83;;;;;;;;;;5023323;28;21342;-58
2021/08/04 04:48:47;;;;;;;3.67;2.10;;;;;;;;;;5020657;28;20045;-58
2021/08/04 04:51:16;;;;;;;4.18;2.00;;;;;;;;;;5029474;28;20137;-58
2021/08/04 04:53:45;;;;;;;3.50;1.70;;;;;;;;;;5021958;28;20077;-58
2021/08/04 04:56:13;;;;;;;3.97;2.00;;;;;;;;;;5025408;28;20163;-57
2021/08/04 04:58:42;;;;;;;4.90;1.60;;;;;;;;;;5024166;28;20053;-58
2021/08/04 05:01:10;;;;;;;4.43;2.22;;;;;;;;;;5018043;28;20056;-59
2021/08/04 05:03:39;;;;;;;3.53;1.90;;;;;;;;;;5023731;28;20138;-58
2021/08/04 05:06:08;;;;;;;3.35;2.03;;;;;;;;;;5023250;28;20076;-58
2021/08/04 05:08:38;;;;;;;2.33;1.45;;;;;;;;;;5021306;28;20054;-58
2021/08/04 05:11:06;;;;;;;3.75;2.03;;;;;;;;;;5024768;28;21976;-57
2021/08/04 05:13:37;;;;;;;3.08;1.83;;;;;;;;;;5032852;28;20137;-58
2021/08/04 05:16:06;;;;;;;3.95;2.00;;;;;;;;;;5032424;28;20148;-58
2021/08/04 05:18:34;;;;;;;3.53;1.90;;;;;;;;;;5028914;28;20103;-58
2021/08/04 05:21:02;;;;;;;3.05;1.70;;;;;;;;;;5028370;28;20456;-58
2021/08/04 05:23:31;;;;;;;3.20;1.90;;;;;;;;;;5028893;28;20485;-57
2021/08/04 05:26:00;;;;;;;3.95;2.03;;;;;;;;;;5034009;28;20041;-58
2021/08/04 05:28:28;;;;;;;4.28;1.90;;;;;;;;;;5016667;28;20085;-58
2021/08/04 05:30:57;;;;;;;3.58;1.83;;;;;;;;;;5019715;28;20060;-57
2021/08/04 05:33:26;;;;;;;3.15;1.88;;;;;;;;;;5044457;28;20061;-57
2021/08/04 05:35:54;;;;;;;3.50;1.83;;;;;;;;;;5034350;28;20125;-57
2021/08/04 05:38:23;;;;;;;3.88;2.13;;;;;;;;;;5039906;28;20549;-58
2021/08/04 05:40:51;;;;;;;5.03;2.20;;;;;;;;;;5035395;28;20068;-57
2021/08/04 05:43:21;;;;;;;3.45;2.08;;;;;;;;;;5027145;28;20387;-58
2021/08/04 05:45:49;;;;;;;4.28;1.77;;;;;;;;;;5033749;28;20134;-58
2021/08/04 05:48:18;;;;;;;2.65;1.83;;;;;;;;;;5031122;28;20088;-58
2021/08/04 05:50:46;;;;;;;4.50;2.15;;;;;;;;;;5034165;28;20081;-59
2021/08/04 05:53:14;;;;;;;3.53;1.95;;;;;;;;;;5030967;28;20049;-58
2021/08/04 05:55:42;;;;;;;4.13;1.90;;;;;;;;;;5033232;28;20132;-59
2021/08/04 05:58:11;;;;;;;3.40;1.88;;;;;;;;;;5020721;28;20136;-57
2021/08/04 06:00:40;;;;;;;4.25;2.00;;;;;;;;;;5019248;28;20064;-58
2021/08/04 06:03:09;;;;;;;3.13;1.90;;;;;;;;;;5008847;28;20052;-58
2021/08/04 06:05:37;;;;;;;3.17;1.70;;;;;;;;;;5025306;28;20049;-57
2021/08/04 06:08:07;;;;;;;4.05;1.90;;;;;;;;;;5025080;28;20083;-57
2021/08/04 06:10:36;;;;;;;3.78;1.77;;;;;;;;;;5026637;28;20416;-57
2021/08/04 06:13:05;;;;;;;2.78;1.75;;;;;;;;;;5026084;28;20063;-58
2021/08/04 06:15:49;;;;;;;5.85;1.70;;;;;;;;;;5032237;28;20515;-58
2021/08/04 06:18:17;;;;;;;4.97;1.52;;;;;;;;;;5033041;28;20556;-58
2021/08/04 06:20:47;;;;;;;2.60;1.60;;;;;;;;;;5027354;28;20436;-57
2021/08/04 06:23:15;;;;;;;3.47;1.85;;;;;;;;;;5040198;28;20132;-58
2021/08/04 06:25:43;;;;;;;4.05;1.40;;;;;;;;;;5036718;28;20152;-57
2021/08/04 06:28:12;;;;;;;4.88;1.48;;;;;;;;;;5045033;28;20537;-57
2021/08/04 06:30:40;;;;;;;3.13;1.90;;;;;;;;;;5029784;28;20143;-58
2021/08/04 06:33:10;;;;;;;4.72;1.70;;;;;;;;;;5030892;28;20045;-58
2021/08/04 06:35:38;;;;;;;2.53;1.70;;;;;;;;;;5033097;28;20045;-57
2021/08/04 06:38:07;;;;;;;5.45;1.55;;;;;;;;;;5029162;28;20408;-58
2021/08/04 06:40:35;;;;;;;5.90;1.60;;;;;;;;;;5032409;28;20049;-58
2021/08/04 06:43:04;;;;;;;3.60;1.65;;;;;;;;;;5028447;28;20372;-58
2021/08/04 06:45:32;;;;;;;3.10;1.60;;;;;;;;;;5025099;28;20128;-58
2021/08/04 06:48:01;;;;;;;3.97;1.50;;;;;;;;;;5027300;28;20069;-58
2021/08/04 06:50:30;;;;;;;2.65;1.55;;;;;;;;;;5031622;28;20149;-57
2021/08/04 06:52:58;;;;;;;3.72;1.35;;;;;;;;;;5034972;28;20491;-58
2021/08/04 06:55:27;;;;;;;2.65;1.60;;;;;;;;;;5043742;28;20152;-57
2021/08/04 06:57:55;;;;;;;2.72;1.33;;;;;;;;;;5024270;28;20128;-58
2021/08/04 07:00:23;;;;;;;3.05;1.58;;;;;;;;;;5011722;28;20060;-57
2021/08/04 07:02:52;;;;;;;3.33;1.40;;;;;;;;;;5032722;28;20571;-57
2021/08/04 07:05:21;;;;;;;2.38;1.10;;;;;;;;;;5018020;28;20123;-58
2021/08/04 07:07:51;;;;;;;2.17;1.20;;;;;;;;;;5021662;28;20123;-57
2021/08/04 07:10:19;;;;;;;2.00;0.88;;;;;;;;;;5014301;28;20126;-56
2021/08/04 07:12:48;;;;;;;2.97;1.45;;;;;;;;;;5021366;28;20116;-57
2021/08/04 07:15:16;;;;;;;3.15;1.42;;;;;;;;;;5035499;28;20053;-56
2021/08/04 07:17:45;;;;;;;2.78;1.17;;;;;;;;;;5036922;28;20087;-57
2021/08/04 07:20:14;;;;;;;2.10;1.23;;;;;;;;;;5041389;28;20585;-57
2021/08/04 07:22:42;;;;;;;2.03;1.02;;;;;;;;;;5027019;28;20536;-56
2021/08/04 07:25:13;;;;;;;1.50;0.85;;;;;;;;;;5024722;28;20417;-57
2021/08/04 07:27:42;;;;;;;1.67;1.00;;;;;;;;;;5025041;28;20045;-57
2021/08/04 07:30:12;;;;;;;3.42;1.30;;;;;;;;;;5036308;28;20099;-56
2021/08/04 07:32:40;;;;;;;2.33;1.30;;;;;;;;;;5030248;28;20121;-57
2021/08/04 07:35:10;;;;;;;4.43;1.00;;;;;;;;;;5039124;28;20053;-57
2021/08/04 07:37:38;;;;;;;1.88;1.10;;;;;;;;;;5020536;28;21686;-58
2021/08/04 07:40:08;;;;;;;2.30;1.02;;;;;;;;;;5031625;28;20795;-57
2021/08/04 07:42:38;;;;;;;1.48;1.15;;;;;;;;;;5037669;28;20389;-57
2021/08/04 07:45:08;;;;;;;1.65;0.80;;;;;;;;;;5031051;28;20056;-57
2021/08/04 07:47:37;;;;;;;1.45;0.98;;;;;;;;;;5037050;28;20045;-57
2021/08/04 07:50:07;;;;;;;1.65;1.05;;;;;;;;;;5030740;28;20040;-58
2021/08/04 07:52:35;;;;;;;2.42;1.13;;;;;;;;;;5016102;28;20405;-57
2021/08/04 07:55:06;;;;;;;1.45;0.95;;;;;;;;;;5017213;28;20597;-57
2021/08/04 07:57:35;;;;;;;1.65;1.05;;;;;;;;;;5021872;28;20045;-56
2021/08/04 08:00:06;;;;;;;2.15;1.08;;;;;;;;;;5029694;28;20414;-56
2021/08/04 08:02:34;;;;;;;1.63;0.90;;;;;;;;;;5042147;28;20406;-56
2021/08/04 08:05:03;;;;;;;2.40;1.08;;;;;;;;;;5017266;28;20049;-57
2021/08/04 08:07:32;;;;;;;3.88;0.95;;;;;;;;;;5022539;28;20473;-57
2021/08/04 08:10:03;;;;;;;2.30;0.90;;;;;;;;;;5026599;28;20444;-58
2021/08/04 08:12:32;;;;;;;1.25;0.70;;;;;;;;;;5011935;28;20493;-58
2021/08/04 08:15:00;;;;;;;1.45;0.82;;;;;;;;;;5025895;28;20041;-57
2021/08/04 08:17:31;;;;;;;1.58;0.80;;;;;;;;;;5036718;28;20044;-57
2021/08/04 08:19:59;;;;;;;2.72;0.93;;;;;;;;;;5041908;28;20365;-56
2021/08/04 08:22:28;;;;;;;2.28;1.20;;;;;;;;;;5027508;28;20608;-58
2021/08/04 08:24:56;;;;;;;1.42;0.95;;;;;;;;;;5028809;28;20479;-57
2021/08/04 08:27:25;;;;;;;1.50;1.10;;;;;;;;;;5022154;28;20125;-56
2021/08/04 08:29:53;;;;;;;1.83;1.00;;;;;;;;;;5031537;28;20052;-56
2021/08/04 08:32:26;;;;;;;1.55;0.80;;;;;;;;;;5039144;28;20052;-58
2021/08/04 08:34:56;;;;;;;1.60;0.90;;;;;;;;;;5038802;28;20628;-58
2021/08/04 08:37:25;;;;;;;1.55;0.90;;;;;;;;;;5034320;28;20071;-57
2021/08/04 08:39:54;;;;;;;1.92;0.80;;;;;;;;;;5046227;28;20138;-57
2021/08/04 08:42:22;;;;;;;1.27;0.80;;;;;;;;;;5035126;28;20048;-57
2021/08/04 08:44:51;;;;;;;2.70;1.20;;;;;;;;;;5043359;28;20053;-57
2021/08/04 08:47:19;;;;;;;1.30;0.80;;;;;;;;;;5034087;28;20139;-57
2021/08/04 08:49:49;;;;;;;1.25;0.80;;;;;;;;;;5030722;28;20133;-57
2021/08/04 08:52:20;;;;;;;1.48;1.08;;;;;;;;;;5008191;28;20119;-56
2021/08/04 08:54:49;;;;;;;1.05;0.80;;;;;;;;;;5009928;28;20118;-57
2021/08/04 08:57:17;;;;;;;3.15;0.90;;;;;;;;;;5028483;28;20096;-58
2021/08/04 08:59:46;;;;;;;1.83;0.90;;;;;;;;;;5028463;28;20049;-57
2021/08/04 09:02:14;;;;;;;1.70;0.90;;;;;;;;;;5041119;28;20782;-57
2021/08/04 09:04:56;;;;;;;0.88;0.68;;;;;;;;;;5025865;28;20057;-57
2021/08/04 09:07:32;;;;;;;1.50;0.70;;;;;;;;;;5028416;28;20095;-58
2021/08/04 09:10:02;;;;;;;1.02;0.60;;;;;;;;;;5030456;28;20059;-56
2021/08/04 09:12:31;;;;;;;3.08;1.20;;;;;;;;;;5022796;28;20140;-56
2021/08/04 09:14:59;;;;;;;1.30;0.90;;;;;;;;;;5010018;28;20571;-56
2021/08/04 09:17:28;;;;;;;1.38;0.80;;;;;;;;;;5021617;28;20045;-58
2021/08/04 09:19:57;;;;;;;1.23;0.77;;;;;;;;;;5031808;28;20382;-57
2021/08/04 09:22:25;;;;;;;2.28;1.00;;;;;;;;;;5028765;28;20121;-58
2021/08/04 09:25:07;;;;;;;2.60;0.85;;;;;;;;;;5034072;28;20115;-57
2021/08/04 09:27:39;;;;;;;1.55;0.75;;;;;;;;;;5041598;28;20073;-57
2021/08/04 09:30:09;;;;;;;1.50;1.00;;;;;;;;;;5026539;28;20049;-57
2021/08/04 09:32:38;;;;;;;1.20;0.73;;;;;;;;;;5035515;28;20095;-57
2021/08/04 09:35:11;;;;;;;0.90;0.68;;;;;;;;;;5034226;28;20140;-58
2021/08/04 09:37:40;;;;;;;2.00;0.85;;;;;;;;;;5027180;28;20077;-57
2021/08/04 09:40:12;;;;;;;1.35;0.73;;;;;;;;;;5026273;28;20448;-58
2021/08/04 09:42:42;;;;;;;1.40;0.90;;;;;;;;;;5041083;28;20160;-57
2021/08/04 09:45:12;;;;;;;1.10;0.80;;;;;;;;;;5032967;28;20053;-57
2021/08/04 09:47:55;;;;;;;4.90;0.80;;;;;;;;;;5028567;28;20087;-57
2021/08/04 09:50:24;;;;;;;1.75;0.85;;;;;;;;;;5029203;28;20544;-58
2021/08/04 09:52:53;;;;;;;2.30;1.20;;;;;;;;;;5044783;28;20513;-58
2021/08/04 09:55:24;;;;;;;2.72;0.95;;;;;;;;;;5031923;28;20371;-57
2021/08/04 09:57:55;;;;;;;4.93;0.85;;;;;;;;;;5038816;28;20087;-57
2021/08/04 10:00:24;;;;;;;1.38;0.82;;;;;;;;;;5017854;28;20049;-57
2021/08/04 10:02:53;;;;;;;2.33;0.68;;;;;;;;;;5020972;28;20065;-58
2021/08/04 10:05:23;;;;;;;2.13;0.80;;;;;;;;;;5039981;28;20055;-57
2021/08/04 10:08:01;;;;;;;1.10;0.73;;;;;;;;;;5038604;28;20481;-57
2021/08/04 10:10:32;;;;;;;2.30;0.82;;;;;;;;;;5033670;28;20041;-58
2021/08/04 10:13:02;;;;;;;2.38;1.25;;;;;;;;;;5037420;28;20052;-57
2021/08/04 10:15:33;;;;;;;1.40;0.90;;;;;;;;;;5024619;28;20049;-57
2021/08/04 10:18:02;;;;;;;1.90;0.88;;;;;;;;;;5020975;28;20072;-58
2021/08/04 10:20:31;;;;;;;1.38;0.77;;;;;;;;;;5020633;28;20497;-57
2021/08/04 10:23:04;;;;;;;1.40;0.70;;;;;;;;;;5023609;28;20144;-57
2021/08/04 10:25:35;;;;;;;2.22;1.10;;;;;;;;;;5029997;28;20049;-57
2021/08/04 10:28:05;;;;;;;1.38;0.80;;;;;;;;;;5023866;28;20720;-57
2021/08/04 10:30:34;;;;;;;1.08;0.80;;;;;;;;;;5028872;28;20049;-56
2021/08/04 10:33:05;;;;;;;1.30;0.73;;;;;;;;;;5032200;28;20583;-56
2021/08/04 10:35:36;;;;;;;1.25;0.80;;;;;;;;;;5028646;28;20056;-57
2021/08/04 10:38:05;;;;;;;1.08;0.70;;;;;;;;;;5036138;28;20107;-57
2021/08/04 10:40:35;;;;;;;1.70;1.08;;;;;;;;;;5037798;28;20132;-57
2021/08/04 10:43:04;;;;;;;1.92;0.73;;;;;;;;;;5032757;28;20666;-57
2021/08/04 10:45:33;;;;;;;0.60;0.55;;;;;;;;;;5027405;28;20562;-56
2021/08/04 10:48:23;;;;;;;2.97;0.95;;;;;;;;;;5029748;28;20471;-57
2021/08/04 10:51:10;;;;;;;1.33;0.70;;;;;;;;;;5041209;28;20128;-58
2021/08/04 10:53:55;;;;;;;1.67;0.85;;;;;;;;;;5033062;28;20110;-58
2021/08/04 10:56:25;;;;;;;0.93;0.57;;;;;;;;;;4994964;28;20049;-58
2021/08/04 10:59:23;;;;;;;1.35;0.80;;;;;;;;;;5029391;28;20052;-57
2021/08/04 11:01:53;;;;;;;1.60;0.80;;;;;;;;;;5024831;28;20165;-58
2021/08/04 11:04:39;;;;;;;2.25;0.70;;;;;;;;;;5042417;28;20544;-56
2021/08/04 11:07:12;;;;;;;1.33;0.75;;;;;;;;;;5032552;28;20107;-57
2021/08/04 11:09:41;;;;;;;1.10;0.77;;;;;;;;;;5033937;28;20076;-57
2021/08/04 11:12:11;;;;;;;4.15;0.88;;;;;;;;;;5036349;28;20128;-57
2021/08/04 11:14:41;;;;;;;1.30;0.95;;;;;;;;;;5027884;28;20127;-56
2021/08/04 11:17:11;;;;;;;2.13;0.80;;;;;;;;;;5036831;28;20075;-57
2021/08/04 11:19:58;;;;;;;2.05;0.90;;;;;;;;;;5039474;28;20041;-57
2021/08/04 11:22:27;;;;;;;1.52;0.70;;;;;;;;;;5013500;28;20041;-57
2021/08/04 11:24:57;;;;;;;2.20;0.60;;;;;;;;;;5026165;28;20041;-57
2021/08/04 11:27:29;;;;;;;1.95;0.68;;;;;;;;;;5032923;28;20044;-57
2021/08/04 11:29:58;;;;;;;1.92;0.85;;;;;;;;;;5010440;28;20057;-58
2021/08/04 11:32:27;;;;;;;1.33;0.80;;;;;;;;;;5023425;28;20037;-57
2021/08/04 11:34:55;;;;;;;0.75;0.60;;;;;;;;;;5036027;28;20063;-57
2021/08/04 11:37:25;;;;;;;1.83;0.70;;;;;;;;;;5039022;28;20076;-57
2021/08/04 11:39:54;;;;;;;1.73;0.80;;;;;;;;;;5034217;28;20049;-57
2021/08/04 11:42:22;;;;;;;1.35;0.95;;;;;;;;;;5024398;28;20143;-57
2021/08/04 11:44:52;;;;;;;1.20;0.60;;;;;;;;;;5020101;28;20140;-57
2021/08/04 11:47:25;;;;;;;2.07;0.90;;;;;;;;;;5029561;28;20123;-57
2021/08/04 11:49:53;;;;;;;1.63;0.80;;;;;;;;;;5036175;28;20562;-58
2021/08/04 11:52:22;;;;;;;1.15;0.70;;;;;;;;;;5024258;28;20191;-58
2021/08/04 11:54:52;;;;;;;1.33;0.70;;;;;;;;;;5027306;28;20497;-58
2021/08/04 11:57:28;;;;;;;1.70;0.85;;;;;;;;;;5031601;28;20050;-58
2021/08/04 11:59:59;;;;;;;0.90;0.70;;;;;;;;;;5023069;28;20052;-58
2021/08/04 12:02:28;;;;;;;1.80;0.90;;;;;;;;;;5023582;28;20052;-58
2021/08/04 12:04:57;;;;;;;1.67;0.98;;;;;;;;;;5035850;28;20064;-57
2021/08/04 12:07:26;;;;;;;1.50;0.93;;;;;;;;;;5023685;28;20144;-59
2021/08/04 12:09:55;;;;;;;2.65;0.73;;;;;;;;;;5012192;28;20100;-59
2021/08/04 12:12:27;;;;;;;1.05;0.73;;;;;;;;;;5039934;28;20087;-58
2021/08/04 12:14:56;;;;;;;1.08;0.63;;;;;;;;;;5024711;28;20587;-58
2021/08/04 12:17:32;;;;;;;3.20;1.15;;;;;;;;;;5027960;28;20041;-57
2021/08/04 12:20:11;;;;;;;1.70;0.90;;;;;;;;;;5033813;28;20054;-57
2021/08/04 12:22:40;;;;;;;1.40;0.95;;;;;;;;;;5029554;28;20196;-56
2021/08/04 12:25:10;;;;;;;2.03;0.70;;;;;;;;;;5042574;28;20327;-57
2021/08/04 12:27:40;;;;;;;2.17;1.05;;;;;;;;;;5031583;28;20049;-56
2021/08/04 12:30:14;;;;;;;1.30;0.70;;;;;;;;;;5037593;28;20060;-57
2021/08/04 12:32:51;;;;;;;1.52;0.93;;;;;;;;;;5019402;28;20076;-57
2021/08/04 12:35:22;;;;;;;1.85;1.20;;;;;;;;;;5029550;28;20088;-56
2021/08/04 12:37:50;;;;;;;1.17;0.80;;;;;;;;;;5032841;28;20700;-57
2021/08/04 12:40:19;;;;;;;1.58;0.98;;;;;;;;;;5041393;28;20057;-57
2021/08/04 12:42:47;;;;;;;1.25;0.68;;;;;;;;;;5020987;28;20429;-58
2021/08/04 12:45:22;;;;;;;1.95;0.88;;;;;;;;;;5029151;28;20122;-57
2021/08/04 12:47:54;;;;;;;1.85;0.80;;;;;;;;;;5036190;28;20463;-57
2021/08/04 12:50:22;;;;;;;1.10;0.70;;;;;;;;;;5031010;28;20055;-58
2021/08/04 12:52:51;;;;;;;2.15;1.00;;;;;;;;;;5044016;28;20385;-56
2021/08/04 12:55:20;;;;;;;2.05;0.80;;;;;;;;;;5037913;28;20061;-56
2021/08/04 12:58:01;;;;;;;1.45;0.93;;;;;;;;;;5040228;28;20135;-56
2021/08/04 13:00:30;;;;;;;1.05;0.70;;;;;;;;;;5027023;28;20597;-57
2021/08/04 13:03:01;;;;;;;1.58;0.90;;;;;;;;;;5032110;28;20080;-57
2021/08/04 13:05:30;;;;;;;1.40;0.80;;;;;;;;;;5029254;28;20041;-57
2021/08/04 13:07:58;;;;;;;2.42;0.80;;;;;;;;;;5039546;28;20138;-57
2021/08/04 13:10:37;;;;;;;4.47;0.77;;;;;;;;;;5029907;28;20075;-57
2021/08/04 13:13:05;;;;;;;1.35;0.88;;;;;;;;;;5041698;28;20423;-57
2021/08/04 13:15:44;;;;;;;1.23;0.80;;;;;;;;;;5027517;28;20053;-56
2021/08/04 13:18:14;;;;;;;1.75;1.00;;;;;;;;;;5033399;28;20124;-56
2021/08/04 13:20:43;;;;;;;0.75;0.70;;;;;;;;;;5032097;28;20057;-57
2021/08/04 13:23:12;;;;;;;4.18;1.00;;;;;;;;;;5044392;28;20155;-57
2021/08/04 13:26:01;;;;;;;1.52;1.10;;;;;;;;;;5044540;28;20091;-57
2021/08/04 13:28:40;;;;;;;2.92;0.95;;;;;;;;;;5034945;28;20430;-57
2021/08/04 13:31:12;;;;;;;1.40;0.98;;;;;;;;;;5036656;28;21038;-57
2021/08/04 13:33:43;;;;;;;1.58;0.70;;;;;;;;;;5007835;28;20058;-56
2021/08/04 13:36:12;;;;;;;2.60;0.80;;;;;;;;;;5039153;28;20119;-57
2021/08/04 13:38:41;;;;;;;1.63;0.90;;;;;;;;;;5040983;28;20552;-57
2021/08/04 13:41:11;;;;;;;1.52;0.90;;;;;;;;;;5031049;28;20049;-57
2021/08/04 13:43:39;;;;;;;1.38;0.95;;;;;;;;;;5044586;28;20395;-56
2021/08/04 13:46:08;;;;;;;4.65;1.13;;;;;;;;;;5028615;28;20085;-57
2021/08/04 13:48:36;;;;;;;1.85;1.02;;;;;;;;;;5037800;28;20516;-57
2021/08/04 13:51:06;;;;;;;1.35;0.95;;;;;;;;;;5033871;28;20052;-58
2021/08/04 13:53:35;;;;;;;1.42;0.93;;;;;;;;;;5031404;28;20084;-58
2021/08/04 13:56:05;;;;;;;2.92;0.88;;;;;;;;;;5034644;28;20078;-57
2021/08/04 13:58:34;;;;;;;2.28;1.00;;;;;;;;;;5026620;28;20077;-58
2021/08/04 14:01:02;;;;;;;2.53;1.10;;;;;;;;;;5037168;28;20054;-58
2021/08/04 14:03:31;;;;;;;1.20;0.70;;;;;;;;;;5029191;28;20444;-57
2021/08/04 14:06:00;;;;;;;1.77;0.98;;;;;;;;;;5033583;28;20385;-58
2021/08/04 14:08:30;;;;;;;0.70;0.47;;;;;;;;;;5042060;28;20045;-57
2021/08/04 14:10:58;;;;;;;8.77;1.10;;;;;;;;;;5043357;28;20099;-58
2021/08/04 14:13:26;;;;;;;1.30;0.80;;;;;;;;;;5027892;28;20080;-57
2021/08/04 14:15:55;;;;;;;1.42;0.80;;;;;;;;;;5040969;28;20137;-58
2021/08/04 14:18:24;;;;;;;1.08;0.70;;;;;;;;;;5038902;28;20049;-58
2021/08/04 14:20:53;;;;;;;10.93;1.38;;;;;;;;;;5035905;28;20053;-57
2021/08/04 14:23:21;;;;;;;3.85;1.20;;;;;;;;;;5035008;28;20049;-58
2021/08/04 14:25:51;;;;;;;2.13;0.90;;;;;;;;;;5022304;28;20085;-58
2021/08/04 14:28:19;;;;;;;2.45;0.77;;;;;;;;;;5041833;28;20145;-58
2021/08/04 14:30:47;;;;;;;1.95;0.90;;;;;;;;;;5033776;28;20115;-58
2021/08/04 14:33:16;;;;;;;1.85;0.88;;;;;;;;;;5034371;28;20049;-57
2021/08/04 14:35:45;;;;;;;1.33;0.80;;;;;;;;;;5031002;28;20047;-58
2021/08/04 14:38:18;;;;;;;3.30;0.90;;;;;;;;;;5032188;28;20045;-57
2021/08/04 14:40:46;;;;;;;1.38;0.73;;;;;;;;;;5031339;28;20077;-58
2021/08/04 14:43:16;;;;;;;1.20;0.73;;;;;;;;;;5032442;28;20389;-57
2021/08/04 14:45:47;;;;;;;2.42;0.80;;;;;;;;;;5034761;28;20136;-58
2021/08/04 14:48:17;;;;;;;1.10;0.57;;;;;;;;;;5036324;28;20041;-58
2021/08/04 14:50:45;;;;;;;1.95;1.00;;;;;;;;;;5033660;28;20726;-56
2021/08/04 14:53:14;;;;;;;4.18;1.10;;;;;;;;;;5024840;28;20045;-56
2021/08/04 14:55:42;;;;;;;3.50;0.90;;;;;;;;;;5039282;28;20056;-57
2021/08/04 14:58:11;;;;;;;2.15;0.70;;;;;;;;;;5035955;28;20127;-56
2021/08/04 15:00:40;;;;;;;4.70;0.90;;;;;;;;;;5033192;28;20494;-56
2021/08/04 15:03:09;;;;;;;5.13;1.00;;;;;;;;;;5024030;28;20139;-57